EGFF

Cardiff Airport

Airport
ICAO code
EGFF
IATA Code
CWL
Summary
ICAO Region
EUR
ICAO Territory
Location

Rhoose, Vale of Glamorgan, Wales

Serving
Cardiff
Elevation
220 ft
Coordinates
51° 23' 48" N , 3° 20' 36" W
KCC
Metar
EGFF 282320Z AUTO 21007KT 9999 OVC013 10/09 Q1008

Description

International airport serving the city of Cardiff and the South Wales region.

Climatology

Temperate Marine climate/Oceanic climate (Köppen climate classification Cfb). Moderately cool summer and comparatively warm winter with a temperature range of only 14°C. Prevailing south-westerly winds from the Atlantic Ocean.

Runways

Designator Length Width Surface Rops
12/30 2392 46 ASP Yes/Yes

Airport map

Aerial View

SKYbrary Partners:

Safety knowledge contributed by: